This is the latest recevied weather packets stored in our database for station/object LKNA. If no packets are shown the sender has not sent any weather packets the latest 10 day(s).
| Time | Temp. | Humidity | Pressure | Rain* | Wind** | Luminosity | Snow |
|---|---|---|---|---|---|---|---|
| 1788303783 | 13.89° C | 71% | 1022 hPa | - | - | - | - |
| 1788302884 | 15° C | 67% | 1022 hPa | - | - | - | - |
| 1788301983 | 15° C | 67% | 1022 hPa | - | - | - | - |
| 1788301084 | 15.56° C | 59% | 1022 hPa | - | - | - | - |
| 1788300183 | 15.56° C | 59% | 1022 hPa | - | - | - | - |
| 1788299283 | 15.56° C | 59% | 1022 hPa | - | - | - | - |
| 1788298383 | 15.56° C | 59% | 1022 hPa | - | - | - | - |
| 1788297483 | 16.67° C | 55% | 1022 hPa | - | - | - | - |
| 1788296583 | 16.67° C | 55% | 1022 hPa | - | - | - | - |
| 1788295683 | 18.89° C | 48% | 1022 hPa | - | - | - | - |
| 1788294782 | 18.89° C | 48% | 1022 hPa | - | - | - | - |
| 1788293883 | 17.78° C | 52% | 1021 hPa | - | - | - | - |
| 1788292982 | 17.78° C | 52% | 1021 hPa | - | - | - | - |
| 1788292084 | 18.89° C | 48% | 1021 hPa | - | - | - | - |
| 1788291183 | 18.89° C | 48% | 1021 hPa | - | - | - | - |
| 1788290284 | 18.89° C | 48% | 1021 hPa | - | - | - | - |
| 1788289384 | 18.89° C | 48% | 1021 hPa | - | - | - | - |
| 1788288484 | 20° C | 45% | 1021 hPa | - | - | - | - |
| 1788287583 | 20° C | 45% | 1021 hPa | - | - | - | - |
| 1788286684 | 20° C | 45% | 1021 hPa | - | - | - | - |
| 1788285783 | 20° C | 45% | 1021 hPa | - | - | - | - |
| 1788284884 | 20.56° C | 43% | 1021 hPa | - | - | - | - |
| 1788283983 | 20.56° C | 43% | 1021 hPa | - | - | - | - |
| 1788283084 | 20.56° C | 43% | 1021 hPa | - | - | - | - |
| 1788282183 | 20.56° C | 43% | 1021 hPa | - | - | - | - |
* Rain since midnight (hover to see other rain measurements)
** Current wind speed in m/s (hover to see current wind gust speed)